Time;durP1;ratioP1;P1;durP2;ratioP2;P2;SDS_P1;SDS_P2;PMS_P1;PMS_P2;Temp;Humidity;BMP_temperature;BMP_pressure;BME280_temperature;BME280_humidity;BME280_pressure;Samples;Min_cycle;Max_cycle;Signal;HPM_P1;HPM_P2
2022/04/14 00:01:46;;;;;;;9.05;5.90;;;10.40;99.90;;;;;;5053130;28;20108;-74
2022/04/14 00:04:11;;;;;;;8.77;6.00;;;10.40;99.90;;;;;;5053126;28;20060;-74
2022/04/14 00:06:37;;;;;;;11.40;5.88;;;10.30;99.90;;;;;;5053052;28;20025;-73
2022/04/14 00:09:03;;;;;;;7.38;5.28;;;10.30;99.90;;;;;;5053648;28;20068;-76
2022/04/14 00:11:28;;;;;;;6.97;5.18;;;10.40;99.90;;;;;;5053014;28;20111;-75
2022/04/14 00:13:54;;;;;;;7.53;5.63;;;10.50;99.90;;;;;;5069620;28;20029;-73
2022/04/14 00:16:20;;;;;;;8.73;5.53;;;10.50;99.90;;;;;;5053005;28;20474;-73
2022/04/14 00:18:45;;;;;;;6.22;5.22;;;10.60;99.90;;;;;;5053161;28;20051;-74
2022/04/14 00:21:11;;;;;;;8.57;6.18;;;10.50;99.90;;;;;;5051576;28;20399;-74
2022/04/14 00:23:36;;;;;;;7.53;5.63;;;10.50;99.90;;;;;;5052494;28;20082;-74
2022/04/14 00:26:02;;;;;;;7.38;5.43;;;10.30;99.90;;;;;;5051692;28;20501;-74
2022/04/14 00:28:27;;;;;;;7.28;5.50;;;10.30;99.90;;;;;;5051638;28;20495;-75
2022/04/14 00:30:53;;;;;;;9.98;6.18;;;10.30;99.90;;;;;;5051223;28;20036;-74
2022/04/14 00:33:18;;;;;;;6.68;5.40;;;10.50;99.90;;;;;;5050866;28;20430;-74
2022/04/14 00:35:44;;;;;;;7.85;6.50;;;10.50;99.90;;;;;;5056779;28;20892;-74
2022/04/14 00:38:09;;;;;;;6.82;5.80;;;10.30;99.90;;;;;;5049247;28;20043;-75
2022/04/14 00:40:35;;;;;;;7.22;5.95;;;10.20;99.90;;;;;;5058276;28;20067;-75
2022/04/14 00:43:00;;;;;;;8.10;6.18;;;10.10;99.90;;;;;;5058874;28;20025;-75
2022/04/14 00:45:26;;;;;;;8.70;6.10;;;10.00;99.90;;;;;;5052471;28;20479;-75
2022/04/14 00:47:53;;;;;;;9.70;6.22;;;10.00;99.90;;;;;;5052610;28;20039;-75
2022/04/14 00:50:19;;;;;;;7.32;6.50;;;10.00;99.90;;;;;;5052411;28;20035;-75
2022/04/14 00:52:46;;;;;;;7.40;5.50;;;10.00;99.90;;;;;;5051294;28;20116;-75
2022/04/14 00:55:13;;;;;;;7.45;6.22;;;10.00;99.90;;;;;;5050357;28;20036;-75
2022/04/14 00:57:38;;;;;;;8.07;5.50;;;10.00;99.90;;;;;;5052353;28;20087;-75
2022/04/14 01:00:05;;;;;;;8.07;5.57;;;10.00;99.90;;;;;;5050867;28;20481;-75
2022/04/14 01:02:31;;;;;;;8.20;6.53;;;10.10;99.90;;;;;;5050319;28;20025;-73
2022/04/14 01:04:58;;;;;;;6.82;5.90;;;10.00;99.90;;;;;;5052207;28;20060;-73
2022/04/14 01:07:25;;;;;;;6.45;5.78;;;9.90;99.90;;;;;;5054232;28;20032;-73
2022/04/14 01:09:51;;;;;;;6.60;5.38;;;9.70;99.90;;;;;;5063409;28;20048;-74
2022/04/14 01:12:18;;;;;;;7.40;5.60;;;9.80;99.90;;;;;;5058901;28;20028;-74
2022/04/14 01:14:43;;;;;;;7.85;6.07;;;9.70;99.90;;;;;;5051924;28;20028;-74
2022/04/14 01:17:09;;;;;;;7.38;5.63;;;9.80;99.90;;;;;;5052041;28;20029;-74
2022/04/14 01:19:36;;;;;;;8.43;6.05;;;9.70;99.90;;;;;;5052136;28;20027;-74
2022/04/14 01:22:16;;;;;;;7.40;6.05;;;9.60;99.90;;;;;;5051817;28;20025;-74
2022/04/14 01:24:43;;;;;;;6.88;6.13;;;9.40;99.90;;;;;;5051966;28;20525;-74
2022/04/14 01:27:09;;;;;;;7.70;5.72;;;9.30;99.90;;;;;;5051812;28;20029;-74
2022/04/14 01:29:34;;;;;;;6.80;6.10;;;9.20;99.90;;;;;;5048053;28;20033;-74
2022/04/14 01:32:02;;;;;;;6.55;5.70;;;9.20;99.90;;;;;;5052540;28;20124;-75
2022/04/14 01:34:31;;;;;;;7.55;6.22;;;9.20;99.90;;;;;;5061171;28;20020;-74
2022/04/14 01:36:58;;;;;;;7.10;6.13;;;9.30;99.90;;;;;;5051513;28;20064;-75
2022/04/14 01:39:24;;;;;;;7.30;5.85;;;9.20;99.90;;;;;;5059565;28;20020;-74
2022/04/14 01:41:49;;;;;;;6.95;6.30;;;9.20;99.90;;;;;;5058325;28;20518;-74
2022/04/14 01:44:15;;;;;;;6.75;5.82;;;9.10;99.90;;;;;;5051227;28;20087;-74
2022/04/14 01:46:41;;;;;;;6.72;6.00;;;9.10;99.90;;;;;;5051486;28;20021;-73
2022/04/14 01:49:08;;;;;;;7.13;6.13;;;9.30;99.90;;;;;;5049296;28;20103;-73
2022/04/14 01:51:34;;;;;;;9.73;6.20;;;9.00;99.90;;;;;;5050019;28;20071;-72
2022/04/14 01:54:00;;;;;;;7.10;6.07;;;8.90;99.90;;;;;;5051480;28;20475;-72
2022/04/14 01:56:25;;;;;;;7.25;6.03;;;9.00;99.90;;;;;;5051563;28;20021;-73
2022/04/14 01:58:54;;;;;;;7.07;5.97;;;9.10;99.90;;;;;;5047479;28;20021;-74
2022/04/14 02:01:20;;;;;;;7.22;6.00;;;9.10;99.90;;;;;;5049840;28;20021;-74
2022/04/14 02:03:46;;;;;;;8.48;6.20;;;9.10;99.90;;;;;;5050077;28;20502;-74
2022/04/14 02:06:12;;;;;;;7.97;6.45;;;9.00;99.90;;;;;;5051296;28;20039;-74
2022/04/14 02:08:37;;;;;;;8.10;6.32;;;8.80;99.90;;;;;;5051264;28;20025;-74
2022/04/14 02:11:04;;;;;;;8.13;7.05;;;9.00;99.90;;;;;;5051115;28;20021;-74
2022/04/14 02:13:31;;;;;;;7.60;6.90;;;9.20;99.90;;;;;;5049796;28;20052;-74
2022/04/14 02:15:57;;;;;;;7.40;6.63;;;9.20;99.90;;;;;;5051144;28;20479;-73
2022/04/14 02:18:22;;;;;;;8.13;6.60;;;9.20;99.90;;;;;;5051127;28;20040;-74
2022/04/14 02:20:48;;;;;;;10.82;8.40;;;9.20;99.90;;;;;;5049840;28;20027;-74
2022/04/14 02:23:13;;;;;;;8.02;7.00;;;9.20;99.90;;;;;;5049849;28;20029;-75
2022/04/14 02:25:39;;;;;;;8.73;7.47;;;9.00;99.90;;;;;;5055902;28;20111;-73
2022/04/14 02:28:04;;;;;;;8.15;7.00;;;8.90;99.90;;;;;;5059813;28;20040;-73
2022/04/14 02:30:30;;;;;;;8.32;6.72;;;9.00;99.90;;;;;;5049778;28;20021;-73
2022/04/14 02:32:56;;;;;;;10.88;7.50;;;9.00;99.90;;;;;;5046327;28;20420;-73
2022/04/14 02:35:21;;;;;;;7.50;6.80;;;8.90;99.90;;;;;;5051220;28;20025;-73
2022/04/14 02:37:47;;;;;;;7.85;6.70;;;9.00;99.90;;;;;;5051235;28;20052;-73
2022/04/14 02:40:13;;;;;;;8.15;6.78;;;8.90;99.90;;;;;;5051468;28;20074;-72
2022/04/14 02:42:40;;;;;;;8.02;7.22;;;8.80;99.90;;;;;;5051210;28;20013;-72
2022/04/14 02:45:06;;;;;;;8.80;7.07;;;8.80;99.90;;;;;;5049977;28;20486;-71
2022/04/14 02:47:31;;;;;;;10.55;7.13;;;8.70;99.90;;;;;;5049991;28;20040;-72
2022/04/14 02:49:57;;;;;;;8.93;7.30;;;8.60;99.90;;;;;;5049943;28;20017;-73
2022/04/14 02:52:22;;;;;;;8.95;6.70;;;8.60;99.90;;;;;;5050839;28;20029;-72
2022/04/14 02:54:48;;;;;;;9.10;7.43;;;8.60;99.90;;;;;;5050931;28;20475;-72
2022/04/14 02:57:13;;;;;;;9.75;7.43;;;8.60;99.90;;;;;;5051050;28;20025;-72
2022/04/14 02:59:39;;;;;;;8.25;7.30;;;8.60;99.90;;;;;;5050988;28;20391;-72
2022/04/14 03:02:05;;;;;;;8.18;7.05;;;8.90;99.90;;;;;;5051115;28;20028;-72
2022/04/14 03:04:30;;;;;;;9.05;7.25;;;9.00;99.90;;;;;;5054769;28;20021;-72
2022/04/14 03:06:57;;;;;;;9.98;7.18;;;9.00;99.90;;;;;;5053329;28;20025;-72
2022/04/14 03:09:23;;;;;;;10.07;7.05;;;9.10;99.90;;;;;;5054782;28;20071;-72
2022/04/14 03:11:49;;;;;;;9.52;7.50;;;9.10;99.90;;;;;;5054106;28;20049;-72
2022/04/14 03:14:14;;;;;;;9.48;7.53;;;9.00;99.90;;;;;;5053891;28;20025;-72
2022/04/14 03:16:40;;;;;;;10.90;8.00;;;8.80;99.90;;;;;;5052991;28;20033;-73
2022/04/14 03:19:06;;;;;;;10.30;8.32;;;8.60;99.90;;;;;;5054889;28;20021;-73
2022/04/14 03:21:31;;;;;;;8.30;7.38;;;8.40;99.90;;;;;;5052668;28;20017;-73
2022/04/14 03:23:56;;;;;;;10.02;7.97;;;8.40;99.90;;;;;;5053215;28;20021;-73
2022/04/14 03:26:22;;;;;;;8.35;7.55;;;8.40;99.90;;;;;;5054476;28;20037;-73
2022/04/14 03:28:47;;;;;;;8.98;8.07;;;8.50;99.90;;;;;;5054214;28;20074;-73
2022/04/14 03:31:13;;;;;;;9.05;8.15;;;8.30;99.90;;;;;;5052695;28;20032;-73
2022/04/14 03:33:38;;;;;;;10.98;8.30;;;8.30;99.90;;;;;;5054142;28;20104;-73
2022/04/14 03:36:04;;;;;;;8.75;7.28;;;8.20;99.90;;;;;;5053987;28;20044;-74
2022/04/14 03:38:30;;;;;;;10.60;7.47;;;8.10;99.90;;;;;;5054068;28;20017;-72
2022/04/14 03:40:56;;;;;;;11.85;7.22;;;8.10;99.90;;;;;;5053761;28;20021;-72
2022/04/14 03:43:21;;;;;;;8.38;7.47;;;8.10;99.90;;;;;;5052746;28;20028;-72
2022/04/14 03:45:47;;;;;;;9.18;7.82;;;8.10;99.90;;;;;;5053880;28;20024;-72
2022/04/14 03:48:13;;;;;;;9.23;7.75;;;8.10;99.90;;;;;;5052602;28;20049;-72
2022/04/14 03:50:38;;;;;;;9.15;8.23;;;8.10;99.90;;;;;;5053450;28;20057;-72
2022/04/14 03:53:04;;;;;;;9.88;7.82;;;8.00;99.90;;;;;;5053785;28;20124;-72
2022/04/14 03:55:29;;;;;;;9.65;8.10;;;8.00;99.90;;;;;;5053478;28;20025;-71
2022/04/14 03:57:55;;;;;;;10.23;7.38;;;8.10;99.90;;;;;;5053841;28;20033;-71
2022/04/14 04:00:20;;;;;;;8.50;7.30;;;8.00;99.90;;;;;;5053013;28;20094;-72
2022/04/14 04:02:46;;;;;;;8.55;7.60;;;7.90;99.90;;;;;;5061770;28;20033;-73
2022/04/14 04:05:12;;;;;;;9.65;7.88;;;7.90;99.90;;;;;;5067399;28;20021;-72
2022/04/14 04:07:37;;;;;;;11.98;7.57;;;8.00;99.90;;;;;;5053572;28;20036;-72
2022/04/14 04:10:04;;;;;;;7.53;6.65;;;7.90;99.90;;;;;;5053510;28;20484;-72
2022/04/14 04:12:30;;;;;;;10.00;8.00;;;7.80;99.90;;;;;;5045580;28;20036;-72
2022/04/14 04:14:55;;;;;;;8.52;7.65;;;7.80;99.90;;;;;;5051154;28;20074;-72
2022/04/14 04:17:21;;;;;;;11.82;7.57;;;7.70;99.90;;;;;;5053384;28;20033;-74
2022/04/14 04:19:46;;;;;;;13.70;8.52;;;7.70;99.90;;;;;;5053081;28;20021;-74
2022/04/14 04:22:12;;;;;;;11.02;8.70;;;7.70;99.90;;;;;;5053365;28;20029;-73
2022/04/14 04:24:38;;;;;;;10.40;9.27;;;7.40;99.90;;;;;;5053095;28;20053;-72
2022/04/14 04:27:05;;;;;;;10.07;9.07;;;7.30;99.90;;;;;;5053154;28;20029;-72
2022/04/14 04:29:30;;;;;;;10.18;9.18;;;7.30;99.90;;;;;;5053118;28;20025;-72
2022/04/14 04:31:56;;;;;;;10.80;9.70;;;7.20;99.90;;;;;;5052860;28;20549;-72
2022/04/14 04:34:21;;;;;;;9.55;8.65;;;7.10;99.90;;;;;;5052845;28;20112;-73
2022/04/14 04:36:47;;;;;;;11.32;9.32;;;7.20;99.90;;;;;;5052944;28;20029;-73
2022/04/14 04:39:12;;;;;;;10.30;8.48;;;7.30;99.90;;;;;;5051749;28;20079;-74
2022/04/14 04:41:38;;;;;;;12.43;9.65;;;7.40;99.90;;;;;;5051429;28;20071;-73
2022/04/14 04:44:04;;;;;;;11.45;8.90;;;7.30;99.90;;;;;;5052865;28;20079;-74
2022/04/14 04:46:31;;;;;;;16.13;10.52;;;7.20;99.90;;;;;;5052889;28;20029;-74
2022/04/14 04:48:56;;;;;;;12.82;9.60;;;7.40;99.90;;;;;;5052647;28;20031;-73
2022/04/14 04:51:22;;;;;;;11.30;10.13;;;7.40;99.90;;;;;;5057447;28;20112;-74
2022/04/14 04:53:48;;;;;;;12.20;10.35;;;7.60;99.90;;;;;;5059944;28;20024;-73
2022/04/14 04:56:13;;;;;;;14.75;11.30;;;7.60;99.90;;;;;;5052587;28;20099;-72
2022/04/14 04:58:39;;;;;;;11.32;10.13;;;7.60;99.90;;;;;;5052520;28;20056;-73
2022/04/14 05:01:04;;;;;;;12.68;10.20;;;7.50;99.90;;;;;;5051116;28;20066;-73
2022/04/14 05:03:30;;;;;;;11.70;9.25;;;7.70;99.90;;;;;;5052577;28;20502;-72
2022/04/14 05:05:56;;;;;;;10.48;9.43;;;7.60;99.90;;;;;;5052419;28;20045;-73
2022/04/14 05:08:21;;;;;;;11.80;9.25;;;7.40;99.90;;;;;;5052354;28;20036;-73
2022/04/14 05:10:47;;;;;;;12.60;10.05;;;7.60;99.90;;;;;;5052094;28;20092;-73
2022/04/14 05:13:15;;;;;;;11.63;10.00;;;7.60;99.90;;;;;;5052211;28;20108;-73
2022/04/14 05:15:41;;;;;;;10.68;8.90;;;7.80;99.90;;;;;;5052068;28;20035;-73
2022/04/14 05:18:07;;;;;;;10.75;9.57;;;8.00;99.90;;;;;;5052208;28;20025;-73
2022/04/14 05:20:34;;;;;;;13.30;9.80;;;8.10;99.90;;;;;;5051994;28;20087;-72
2022/04/14 05:23:00;;;;;;;11.38;9.60;;;8.20;99.90;;;;;;5050817;28;20029;-72
2022/04/14 05:25:26;;;;;;;11.82;10.48;;;8.30;99.90;;;;;;5051463;28;20028;-70
2022/04/14 05:27:51;;;;;;;11.85;10.48;;;8.50;99.90;;;;;;5051639;28;20021;-73
2022/04/14 05:30:17;;;;;;;11.40;10.23;;;8.60;99.90;;;;;;5051843;28;20075;-73
2022/04/14 05:32:42;;;;;;;10.95;9.27;;;8.60;99.90;;;;;;5051875;28;20039;-73
2022/04/14 05:35:08;;;;;;;12.10;10.00;;;8.70;99.90;;;;;;5051793;28;20075;-73
2022/04/14 05:37:35;;;;;;;12.98;10.18;;;8.80;99.90;;;;;;5052060;28;20025;-72
2022/04/14 05:40:02;;;;;;;11.52;10.32;;;8.90;99.90;;;;;;5051808;28;20031;-72
2022/04/14 05:42:27;;;;;;;11.25;10.05;;;9.00;99.90;;;;;;5071427;28;20012;-73
2022/04/14 05:44:53;;;;;;;12.50;11.13;;;9.20;99.90;;;;;;5051787;28;20086;-74
2022/04/14 05:47:18;;;;;;;11.30;10.15;;;9.20;99.90;;;;;;5050727;28;20032;-72
2022/04/14 05:49:44;;;;;;;12.25;10.18;;;9.40;99.90;;;;;;5051673;28;20044;-73
2022/04/14 05:52:09;;;;;;;14.05;10.80;;;9.50;99.90;;;;;;5051502;28;20036;-72
2022/04/14 05:54:35;;;;;;;12.23;10.93;;;9.70;99.90;;;;;;5050193;28;20514;-72
2022/04/14 05:57:00;;;;;;;12.75;10.13;;;9.80;99.90;;;;;;5051709;28;20035;-74
2022/04/14 05:59:26;;;;;;;12.77;10.98;;;9.90;99.90;;;;;;5051597;28;20028;-73
2022/04/14 06:01:51;;;;;;;12.93;10.75;;;10.00;99.90;;;;;;5051471;28;20395;-72
2022/04/14 06:04:17;;;;;;;12.00;10.30;;;10.20;99.90;;;;;;5050391;28;20211;-73
2022/04/14 06:06:42;;;;;;;11.88;10.60;;;10.10;99.90;;;;;;5051476;28;20041;-73
2022/04/14 06:09:09;;;;;;;13.75;11.20;;;10.30;99.90;;;;;;5048442;28;20036;-72
2022/04/14 06:11:34;;;;;;;13.77;10.77;;;10.20;99.90;;;;;;5051274;28;20036;-72
2022/04/14 06:14:00;;;;;;;12.48;10.30;;;10.20;99.90;;;;;;5049956;28;20025;-72
2022/04/14 06:16:25;;;;;;;12.73;10.32;;;10.30;99.90;;;;;;5051217;28;20035;-72
2022/04/14 06:18:51;;;;;;;11.85;10.65;;;10.50;99.90;;;;;;5051380;28;20605;-73
2022/04/14 06:21:16;;;;;;;12.07;10.77;;;10.70;99.90;;;;;;5051201;28;20028;-73
2022/04/14 06:23:42;;;;;;;15.45;11.63;;;10.80;99.90;;;;;;5051329;28;20033;-72
2022/04/14 06:26:07;;;;;;;14.00;12.05;;;11.10;99.90;;;;;;5059446;28;20494;-73
2022/04/14 06:28:34;;;;;;;14.25;11.65;;;11.10;99.90;;;;;;5059500;28;20029;-73
2022/04/14 06:31:00;;;;;;;16.55;11.57;;;11.10;99.90;;;;;;5038560;28;20021;-73
2022/04/14 06:33:30;;;;;;;11.93;10.20;;;11.10;99.90;;;;;;5049567;28;20036;-73
2022/04/14 06:35:56;;;;;;;13.55;10.38;;;11.20;99.90;;;;;;5051058;28;20028;-73
2022/04/14 06:38:24;;;;;;;14.15;9.60;;;11.50;99.90;;;;;;5052504;28;20025;-73
2022/04/14 06:40:49;;;;;;;10.77;8.70;;;11.70;99.90;;;;;;5054978;28;20021;-73
2022/04/14 06:43:15;;;;;;;11.25;9.27;;;11.70;99.90;;;;;;5055187;28;20028;-73
2022/04/14 06:45:40;;;;;;;12.13;9.43;;;11.80;99.90;;;;;;5054960;28;20048;-73
2022/04/14 06:48:08;;;;;;;10.15;9.02;;;12.00;99.90;;;;;;5055097;28;20057;-72
2022/04/14 06:50:33;;;;;;;14.18;9.27;;;12.10;99.90;;;;;;5054942;28;20036;-73
2022/04/14 06:52:59;;;;;;;10.95;9.35;;;12.10;99.90;;;;;;5054891;28;20103;-73
2022/04/14 06:55:25;;;;;;;10.82;9.10;;;12.30;99.90;;;;;;5054859;28;20483;-72
2022/04/14 06:57:51;;;;;;;11.93;9.15;;;12.40;99.90;;;;;;5041410;28;20100;-72
2022/04/14 07:00:17;;;;;;;14.95;10.13;;;12.40;99.90;;;;;;5051863;28;20500;-73
2022/04/14 07:02:51;;;;;;;13.05;10.15;;;12.50;99.90;;;;;;5054067;28;20382;-73
2022/04/14 07:05:17;;;;;;;12.45;10.32;;;12.70;99.90;;;;;;5054436;28;20025;-73
2022/04/14 07:07:43;;;;;;;12.90;9.70;;;12.90;99.90;;;;;;5054705;28;20105;-72
2022/04/14 07:10:09;;;;;;;14.40;10.23;;;13.10;99.90;;;;;;5053400;28;20021;-73
2022/04/14 07:12:35;;;;;;;13.52;10.23;;;13.30;99.90;;;;;;5053240;28;20509;-73
2022/04/14 07:15:01;;;;;;;15.45;10.90;;;13.40;99.90;;;;;;5054249;28;20064;-73
2022/04/14 07:17:27;;;;;;;14.18;10.55;;;13.30;99.90;;;;;;5053338;28;20053;-73
2022/04/14 07:19:52;;;;;;;12.40;10.52;;;13.30;99.90;;;;;;5054538;28;20025;-73
2022/04/14 07:22:18;;;;;;;14.32;10.82;;;13.30;99.90;;;;;;5054349;28;20475;-73
2022/04/14 07:24:47;;;;;;;12.23;10.85;;;13.20;99.90;;;;;;5054602;28;20402;-73
2022/04/14 07:27:13;;;;;;;20.70;10.88;;;13.30;99.90;;;;;;5054304;28;20062;-73
2022/04/14 07:29:38;;;;;;;12.65;9.77;;;13.40;99.90;;;;;;5054265;28;20403;-73
2022/04/14 07:32:04;;;;;;;13.73;10.07;;;13.40;99.90;;;;;;5055300;28;20092;-75
2022/04/14 07:34:30;;;;;;;16.40;11.60;;;13.40;99.90;;;;;;5068262;28;20399;-73
2022/04/14 07:36:55;;;;;;;13.77;11.75;;;13.50;99.90;;;;;;5061791;28;20013;-73
2022/04/14 07:39:21;;;;;;;18.45;14.00;;;13.70;99.90;;;;;;5054178;28;20029;-73
2022/04/14 07:41:46;;;;;;;17.42;13.70;;;13.80;99.90;;;;;;5052426;28;20028;-72
2022/04/14 07:44:11;;;;;;;18.10;14.18;;;13.90;99.90;;;;;;5054106;28;20124;-72
2022/04/14 07:46:38;;;;;;;21.13;14.88;;;14.00;99.90;;;;;;5052733;28;20025;-73
2022/04/14 07:49:05;;;;;;;18.60;12.80;;;14.00;99.90;;;;;;5051512;28;20029;-73
2022/04/14 07:51:31;;;;;;;20.88;13.68;;;14.00;99.90;;;;;;5052424;28;20029;-73
2022/04/14 07:53:56;;;;;;;18.98;13.60;;;14.00;99.90;;;;;;5052415;28;20026;-72
2022/04/14 07:56:22;;;;;;;19.58;13.68;;;14.00;99.90;;;;;;5053698;28;20017;-74
2022/04/14 07:58:49;;;;;;;19.83;14.95;;;14.00;99.90;;;;;;5052259;28;20025;-73
2022/04/14 08:01:16;;;;;;;16.70;13.30;;;13.90;99.90;;;;;;5057286;28;20025;-73
2022/04/14 08:03:42;;;;;;;13.82;12.32;;;13.90;99.90;;;;;;5054191;28;20021;-73
2022/04/14 08:06:08;;;;;;;17.40;13.45;;;13.90;99.90;;;;;;5057975;28;20029;-73
2022/04/14 08:08:34;;;;;;;18.25;12.57;;;13.90;99.90;;;;;;5056161;28;20017;-73
2022/04/14 08:11:03;;;;;;;19.23;13.00;;;13.90;99.90;;;;;;5051100;28;20021;-73
2022/04/14 08:13:30;;;;;;;17.33;12.82;;;14.00;99.90;;;;;;5047159;28;20039;-73
2022/04/14 08:16:01;;;;;;;17.33;13.15;;;14.10;99.90;;;;;;5051805;28;20032;-74
2022/04/14 08:18:26;;;;;;;17.77;12.65;;;14.10;99.90;;;;;;5052082;28;20112;-74
2022/04/14 08:20:52;;;;;;;18.48;12.80;;;14.00;99.90;;;;;;5053057;28;20056;-73
2022/04/14 08:23:18;;;;;;;16.10;12.52;;;14.00;99.90;;;;;;5052017;28;20021;-74
2022/04/14 08:25:43;;;;;;;17.40;12.98;;;14.10;99.90;;;;;;5059078;28;20094;-74
2022/04/14 08:28:09;;;;;;;16.08;12.68;;;14.30;99.90;;;;;;5051883;28;20040;-75
2022/04/14 08:30:36;;;;;;;17.88;12.82;;;14.40;99.90;;;;;;5052753;28;20618;-74
2022/04/14 08:33:05;;;;;;;18.00;12.85;;;14.50;99.90;;;;;;5051611;28;20032;-74
2022/04/14 08:35:32;;;;;;;19.77;13.25;;;14.60;99.90;;;;;;5051510;28;20585;-74
2022/04/14 08:38:00;;;;;;;18.23;13.18;;;14.60;99.90;;;;;;5051462;28;20021;-75
2022/04/14 08:40:29;;;;;;;24.50;13.65;;;14.70;99.90;;;;;;5052476;28;20024;-74
2022/04/14 08:43:04;;;;;;;18.73;13.98;;;14.70;99.90;;;;;;5052759;28;20104;-74
2022/04/14 08:45:33;;;;;;;19.27;14.10;;;14.90;99.90;;;;;;5051263;28;20036;-73
2022/04/14 08:48:00;;;;;;;17.75;14.85;;;14.90;99.90;;;;;;5052461;28;20106;-74
2022/04/14 08:50:26;;;;;;;19.70;15.02;;;15.10;99.90;;;;;;5052897;28;20036;-74
2022/04/14 08:52:52;;;;;;;20.02;14.98;;;15.10;99.90;;;;;;5060428;28;20029;-75
2022/04/14 08:55:18;;;;;;;17.25;14.65;;;15.10;99.90;;;;;;5058217;28;20075;-75
2022/04/14 08:57:44;;;;;;;19.20;15.20;;;15.10;99.90;;;;;;5061552;28;20025;-74
2022/04/14 09:00:12;;;;;;;18.42;15.10;;;15.10;99.90;;;;;;5059341;28;20032;-74
2022/04/14 09:02:38;;;;;;;19.90;16.33;;;15.20;99.90;;;;;;5066661;28;20082;-74
2022/04/14 09:05:05;;;;;;;23.60;15.57;;;15.30;99.90;;;;;;5058654;28;20098;-74
2022/04/14 09:07:31;;;;;;;19.33;15.10;;;15.40;99.90;;;;;;5052155;28;20044;-75
2022/04/14 09:09:57;;;;;;;21.48;16.90;;;15.50;99.90;;;;;;5052223;28;20458;-74
2022/04/14 09:12:24;;;;;;;20.30;16.45;;;15.40;99.90;;;;;;5051923;28;20056;-74
2022/04/14 09:14:49;;;;;;;21.45;15.48;;;15.50;99.90;;;;;;5059761;28;20035;-74
2022/04/14 09:17:15;;;;;;;23.02;16.83;;;15.50;99.90;;;;;;5058822;28;20107;-74
2022/04/14 09:19:41;;;;;;;20.80;16.67;;;15.50;99.90;;;;;;5050667;28;20067;-74
2022/04/14 09:22:14;;;;;;;21.45;15.95;;;15.60;99.90;;;;;;5050393;28;20025;-74
2022/04/14 09:24:47;;;;;;;22.90;16.38;;;15.70;99.90;;;;;;5051989;28;20029;-74
2022/04/14 09:27:28;;;;;;;24.83;16.60;;;15.90;99.90;;;;;;5039142;28;20447;-74
2022/04/14 09:29:56;;;;;;;25.90;16.95;;;15.90;99.90;;;;;;5051717;28;20033;-74
2022/04/14 09:32:36;;;;;;;24.73;17.23;;;15.90;99.90;;;;;;5051561;28;20024;-75
2022/04/14 09:35:23;;;;;;;23.02;16.35;;;16.10;99.90;;;;;;5050417;28;20128;-74
2022/04/14 09:38:07;;;;;;;;;;;16.20;99.90;;;;;;5052276;28;20383;-74
2022/04/14 09:40:37;;;;;;;20.48;17.35;;;16.40;99.90;;;;;;5044952;28;19932;-74
2022/04/14 09:43:04;;;;;;;21.48;17.13;;;16.40;99.90;;;;;;5051553;28;20035;-74
2022/04/14 09:45:30;;;;;;;23.98;18.08;;;16.50;99.90;;;;;;5050274;28;20123;-74
2022/04/14 09:48:03;;;;;;;23.60;17.77;;;16.60;99.90;;;;;;5051586;28;20084;-74
2022/04/14 09:50:30;;;;;;;23.00;18.05;;;16.50;99.90;;;;;;5050166;28;20074;-74
2022/04/14 09:53:05;;;;;;;26.63;17.52;;;16.50;99.90;;;;;;5068758;28;20111;-73
2022/04/14 09:55:31;;;;;;;24.55;18.17;;;16.60;99.90;;;;;;5058252;28;20055;-74
2022/04/14 09:58:08;;;;;;;26.00;17.60;;;16.70;99.90;;;;;;5038055;28;20025;-74
2022/04/14 10:00:36;;;;;;;;;;;16.90;99.90;;;;;;5051748;28;20096;-74
2022/04/14 10:03:10;;;;;;;20.98;16.33;;;17.00;99.90;;;;;;5052631;28;19905;-74
2022/04/14 10:05:35;;;;;;;22.50;17.08;;;17.20;99.90;;;;;;5051268;28;20049;-74
2022/04/14 10:08:01;;;;;;;23.88;18.63;;;17.20;99.90;;;;;;5051468;28;20063;-74
2022/04/14 10:10:26;;;;;;;22.02;18.15;;;17.30;99.90;;;;;;5049979;28;20024;-74
2022/04/14 10:13:03;;;;;;;24.60;17.05;;;17.20;99.90;;;;;;5053834;28;20111;-74
2022/04/14 10:15:31;;;;;;;26.65;17.75;;;17.50;99.90;;;;;;5057794;28;20033;-74
2022/04/14 10:17:59;;;;;;;22.02;16.80;;;17.50;99.90;;;;;;5057976;28;20088;-74
2022/04/14 10:20:25;;;;;;;20.77;17.13;;;17.60;99.90;;;;;;5057784;28;20025;-74
2022/04/14 10:22:50;;;;;;;24.60;17.63;;;17.60;99.90;;;;;;5058056;28;20028;-74
2022/04/14 10:25:17;;;;;;;24.52;17.60;;;17.50;99.90;;;;;;5056615;28;20501;-75
2022/04/14 10:27:43;;;;;;;23.77;18.25;;;18.00;99.90;;;;;;5057893;28;20493;-73
2022/04/14 10:30:09;;;;;;;24.92;18.10;;;17.90;99.90;;;;;;5058885;28;20479;-74
2022/04/14 10:32:35;;;;;;;21.20;17.42;;;17.60;99.90;;;;;;5059011;28;20106;-74
2022/04/14 10:35:03;;;;;;;20.83;16.02;;;17.90;99.90;;;;;;5079169;28;20036;-74
2022/04/14 10:37:34;;;;;;;27.13;16.10;;;17.90;99.90;;;;;;5078636;28;20025;-74
2022/04/14 10:40:00;;;;;;;21.85;17.30;;;18.20;99.90;;;;;;5057593;28;20021;-74
2022/04/14 10:42:27;;;;;;;21.73;15.68;;;18.30;99.90;;;;;;5058661;28;20390;-74
2022/04/14 10:44:54;;;;;;;19.35;14.55;;;18.40;99.90;;;;;;5058393;28;20145;-74
2022/04/14 10:47:50;;;;;;;20.05;15.30;;;18.30;99.90;;;;;;5065901;28;20063;-74
2022/04/14 10:50:34;;;;;;;18.27;14.75;;;18.50;99.90;;;;;;5048336;28;20033;-73
2022/04/14 10:53:21;;;;;;;20.60;15.60;;;18.40;99.90;;;;;;5057834;28;20029;-74
2022/04/14 10:55:50;;;;;;;20.77;15.90;;;18.60;99.90;;;;;;5057439;28;20037;-74
2022/04/14 10:58:43;;;;;;;19.17;14.50;;;18.60;99.90;;;;;;5057790;28;20013;-74
2022/04/14 11:01:13;;;;;;;17.90;13.93;;;18.60;99.90;;;;;;5044173;28;20024;-74
2022/04/14 11:03:49;;;;;;;20.95;16.27;;;18.70;99.90;;;;;;5057567;28;20078;-74
2022/04/14 11:06:47;;;;;;;20.55;14.95;;;18.80;99.90;;;;;;5057549;28;20072;-74
2022/04/14 11:09:50;;;;;;;19.05;14.93;;;18.80;99.90;;;;;;5060035;28;20548;-75
2022/04/14 11:12:24;;;;;;;18.48;15.63;;;19.40;99.90;;;;;;5069153;28;20021;-74
2022/04/14 11:14:52;;;;;;;18.38;15.95;;;19.00;99.90;;;;;;5059217;28;20496;-73
2022/04/14 11:17:40;;;;;;;17.88;14.90;;;18.80;99.90;;;;;;5066817;28;20482;-74
2022/04/14 11:20:13;;;;;;;17.38;15.00;;;18.60;99.90;;;;;;5063758;28;20025;-74
2022/04/14 11:23:01;;;;;;;19.20;15.60;;;18.90;99.90;;;;;;5067661;28;20032;-74
2022/04/14 11:25:48;;;;;;;20.38;15.30;;;19.00;99.90;;;;;;5053307;28;20497;-74
2022/04/14 11:28:17;;;;;;;22.45;13.50;;;19.30;99.90;;;;;;5054218;28;20063;-73
2022/04/14 11:30:43;;;;;;;18.88;14.25;;;19.50;99.90;;;;;;5053823;28;20025;-74
2022/04/14 11:33:22;;;;;;;16.27;14.20;;;19.40;99.90;;;;;;5056463;28;20025;-74
2022/04/14 11:35:48;;;;;;;16.17;13.98;;;19.50;99.90;;;;;;5060329;28;20035;-73
2022/04/14 11:38:52;;;;;;;13.80;11.65;;;19.30;99.90;;;;;;5062403;28;20111;-73
2022/04/14 11:41:37;;;;;;;16.63;13.68;;;19.70;99.90;;;;;;5058758;28;20434;-74
2022/04/14 11:44:08;;;;;;;17.17;14.10;;;20.00;99.90;;;;;;5080118;28;20021;-74
2022/04/14 11:46:37;;;;;;;19.17;12.93;;;19.90;99.90;;;;;;5061081;28;20025;-74
2022/04/14 11:49:03;;;;;;;15.13;12.73;;;19.80;99.90;;;;;;5055182;28;20052;-73
2022/04/14 11:51:29;;;;;;;18.00;12.80;;;19.70;99.90;;;;;;5047612;28;20082;-73
2022/04/14 11:53:56;;;;;;;13.55;12.13;;;19.90;99.90;;;;;;5053055;28;20032;-74
2022/04/14 11:56:25;;;;;;;14.93;10.95;;;20.10;99.90;;;;;;5039206;28;20108;-74
2022/04/14 11:58:52;;;;;;;15.13;11.43;;;20.20;99.90;;;;;;5056866;28;20108;-73
2022/04/14 12:01:18;;;;;;;13.80;11.10;;;20.30;99.90;;;;;;5039632;28;20025;-74
2022/04/14 12:03:44;;;;;;;12.90;10.13;;;20.30;99.90;;;;;;5052792;28;20101;-74
2022/04/14 12:06:12;;;;;;;13.40;9.45;;;20.50;99.90;;;;;;5041479;28;20041;-74
2022/04/14 12:08:38;;;;;;;11.25;9.52;;;20.70;99.90;;;;;;5051935;28;20458;-74
2022/04/14 12:11:10;;;;;;;10.85;9.70;;;21.10;99.90;;;;;;5054091;28;20060;-74
2022/04/14 12:13:36;;;;;;;11.52;10.32;;;20.90;99.90;;;;;;5054204;28;20482;-74
2022/04/14 12:16:07;;;;;;;10.00;8.90;;;21.10;99.90;;;;;;5054468;28;20036;-74
2022/04/14 12:18:34;;;;;;;13.55;10.20;;;21.30;99.90;;;;;;5065999;28;20049;-74
2022/04/14 12:20:59;;;;;;;12.25;9.63;;;20.80;99.90;;;;;;5052994;28;20061;-75
2022/04/14 12:23:25;;;;;;;11.82;10.45;;;20.90;99.90;;;;;;5053194;28;20075;-74
2022/04/14 12:25:52;;;;;;;11.20;9.50;;;21.20;99.90;;;;;;5053085;28;20028;-74
2022/04/14 12:28:18;;;;;;;11.63;9.40;;;21.60;99.90;;;;;;5053041;28;20070;-75
2022/04/14 12:30:44;;;;;;;15.00;10.23;;;21.70;99.90;;;;;;5052779;28;20511;-74
2022/04/14 12:33:10;;;;;;;10.68;9.15;;;21.70;99.90;;;;;;5053010;28;20029;-74
2022/04/14 12:35:40;;;;;;;10.77;8.65;;;21.80;99.90;;;;;;5052279;28;20025;-74
2022/04/14 12:38:21;;;;;;;9.90;8.23;;;21.60;99.90;;;;;;5052874;28;20032;-74
2022/04/14 12:41:00;;;;;;;10.00;7.68;;;22.00;99.90;;;;;;5052723;28;20021;-74